sensor_id;sensor_type;location;lat;lon;timestamp;pressure;altitude;pressure_sealevel;temperature;humidity
55418;BME280;41287;47.554;7.844;2023-04-03T00:01:15;98363.16;;;16.99;59.19
55418;BME280;41287;47.554;7.844;2023-04-03T00:03:41;98364.28;;;16.98;59.22
55418;BME280;41287;47.554;7.844;2023-04-03T00:06:07;98356.94;;;16.99;59.28
55418;BME280;41287;47.554;7.844;2023-04-03T00:08:34;98375.88;;;16.99;59.28
55418;BME280;41287;47.554;7.844;2023-04-03T00:11:00;98381.31;;;16.99;59.28
55418;BME280;41287;47.554;7.844;2023-04-03T00:13:26;98378.59;;;16.99;59.22
55418;BME280;41287;47.554;7.844;2023-04-03T00:15:51;98387.84;;;16.98;59.22
55418;BME280;41287;47.554;7.844;2023-04-03T00:18:17;98381.31;;;16.99;59.28
55418;BME280;41287;47.554;7.844;2023-04-03T00:20:42;98380.19;;;17.00;59.48
55418;BME280;41287;47.554;7.844;2023-04-03T00:23:08;98389.41;;;16.99;59.24
55418;BME280;41287;47.554;7.844;2023-04-03T00:25:33;98391.34;;;16.98;59.22
55418;BME280;41287;47.554;7.844;2023-04-03T00:27:59;98402.19;;;16.98;59.19
55418;BME280;41287;47.554;7.844;2023-04-03T00:30:24;98399.13;;;17.00;59.32
55418;BME280;41287;47.554;7.844;2023-04-03T00:32:52;98403.75;;;16.99;59.36
55418;BME280;41287;47.554;7.844;2023-04-03T00:35:19;98396.78;;;16.98;59.27
55418;BME280;41287;47.554;7.844;2023-04-03T00:37:45;98391.81;;;17.01;59.32
55418;BME280;41287;47.554;7.844;2023-04-03T00:40:12;98398.34;;;16.99;59.20
55418;BME280;41287;47.554;7.844;2023-04-03T00:42:40;98395.63;;;16.99;59.26
55418;BME280;41287;47.554;7.844;2023-04-03T00:47:31;98394.84;;;16.99;59.34
55418;BME280;41287;47.554;7.844;2023-04-03T00:49:57;98391.03;;;17.00;59.27
55418;BME280;41287;47.554;7.844;2023-04-03T00:52:26;98392.13;;;16.99;59.38
55418;BME280;41287;47.554;7.844;2023-04-03T00:54:57;98395.97;;;16.98;59.29
55418;BME280;41287;47.554;7.844;2023-04-03T00:57:23;98400.25;;;16.99;59.12
55418;BME280;41287;47.554;7.844;2023-04-03T00:59:55;98400.25;;;16.99;59.13
55418;BME280;41287;47.554;7.844;2023-04-03T01:02:23;98398.34;;;16.99;59.34
55418;BME280;41287;47.554;7.844;2023-04-03T01:04:49;98404.91;;;16.98;59.40
55418;BME280;41287;47.554;7.844;2023-04-03T01:07:28;98407.09;;;16.96;59.30
55418;BME280;41287;47.554;7.844;2023-04-03T01:09:57;98409.50;;;16.98;59.29
55418;BME280;41287;47.554;7.844;2023-04-03T01:12:26;98405.66;;;16.99;59.39
55418;BME280;41287;47.554;7.844;2023-04-03T01:15:03;98404.09;;;16.98;59.30
55418;BME280;41287;47.554;7.844;2023-04-03T01:23:06;98402.19;;;16.98;59.36
55418;BME280;41287;47.554;7.844;2023-04-03T01:25:50;98407.59;;;16.98;59.40
55418;BME280;41287;47.554;7.844;2023-04-03T01:28:28;98407.91;;;16.97;59.41
55418;BME280;41287;47.554;7.844;2023-04-03T01:33:40;98406.81;;;16.98;59.28
55418;BME280;41287;47.554;7.844;2023-04-03T01:36:07;98407.09;;;16.96;59.26
55418;BME280;41287;47.554;7.844;2023-04-03T01:38:33;98414.91;;;16.98;59.25
55418;BME280;41287;47.554;7.844;2023-04-03T01:40:58;98408.72;;;16.97;59.68
55418;BME280;41287;47.554;7.844;2023-04-03T01:43:23;98403.28;;;16.97;59.41
55418;BME280;41287;47.554;7.844;2023-04-03T01:45:49;98408.72;;;16.97;59.34
55418;BME280;41287;47.554;7.844;2023-04-03T01:48:15;98399.78;;;16.97;59.28
55418;BME280;41287;47.554;7.844;2023-04-03T01:50:41;98404.09;;;16.98;59.29
55418;BME280;41287;47.554;7.844;2023-04-03T01:53:08;98412.22;;;16.98;59.37
55418;BME280;41287;47.554;7.844;2023-04-03T01:55:35;98411.06;;;16.99;59.41
55418;BME280;41287;47.554;7.844;2023-04-03T01:58:00;98408.72;;;16.97;59.26
55418;BME280;41287;47.554;7.844;2023-04-03T02:00:28;98415.22;;;16.96;59.49
55418;BME280;41287;47.554;7.844;2023-04-03T02:02:55;98414.13;;;16.97;59.34
55418;BME280;41287;47.554;7.844;2023-04-03T02:05:21;98410.63;;;16.97;59.30
55418;BME280;41287;47.554;7.844;2023-04-03T02:07:47;98418.72;;;16.97;59.36
55418;BME280;41287;47.554;7.844;2023-04-03T02:10:12;98420.34;;;16.98;59.24
55418;BME280;41287;47.554;7.844;2023-04-03T02:12:38;98419.53;;;16.97;59.28
55418;BME280;41287;47.554;7.844;2023-04-03T02:15:03;98421.91;;;16.99;59.24
55418;BME280;41287;47.554;7.844;2023-04-03T02:17:29;98417.63;;;16.98;59.35
55418;BME280;41287;47.554;7.844;2023-04-03T02:19:55;98426.56;;;16.98;59.28
55418;BME280;41287;47.554;7.844;2023-04-03T02:22:20;98422.25;;;16.97;59.34
55418;BME280;41287;47.554;7.844;2023-04-03T02:24:46;98427.66;;;16.97;59.28
55418;BME280;41287;47.554;7.844;2023-04-03T02:27:11;98425.75;;;16.98;59.41
55418;BME280;41287;47.554;7.844;2023-04-03T02:29:36;98425.75;;;16.98;59.41
55418;BME280;41287;47.554;7.844;2023-04-03T02:32:02;98436.56;;;16.98;59.35
55418;BME280;41287;47.554;7.844;2023-04-03T02:34:27;98427.66;;;16.97;59.26
55418;BME280;41287;47.554;7.844;2023-04-03T02:36:52;98431.97;;;16.98;59.44
55418;BME280;41287;47.554;7.844;2023-04-03T02:39:18;98429.56;;;16.97;59.45
55418;BME280;41287;47.554;7.844;2023-04-03T02:41:43;98423.03;;;16.98;59.49
55418;BME280;41287;47.554;7.844;2023-04-03T02:44:10;98433.88;;;16.98;59.48
55418;BME280;41287;47.554;7.844;2023-04-03T02:46:35;98430.38;;;16.97;59.36
55418;BME280;41287;47.554;7.844;2023-04-03T02:49:01;98430.38;;;16.97;59.37
55418;BME280;41287;47.554;7.844;2023-04-03T02:51:26;98435.78;;;16.97;59.38
55418;BME280;41287;47.554;7.844;2023-04-03T02:53:52;98435.78;;;16.97;59.32
55418;BME280;41287;47.554;7.844;2023-04-03T02:56:18;98429.56;;;16.97;59.41
55418;BME280;41287;47.554;7.844;2023-04-03T02:58:44;98434.97;;;16.97;59.53
55418;BME280;41287;47.554;7.844;2023-04-03T03:01:10;98436.56;;;16.98;59.37
55418;BME280;41287;47.554;7.844;2023-04-03T03:03:36;98428.47;;;16.98;59.27
55418;BME280;41287;47.554;7.844;2023-04-03T03:06:11;98436.88;;;16.96;59.28
55418;BME280;41287;47.554;7.844;2023-04-03T03:08:37;98433.06;;;16.97;59.25
55418;BME280;41287;47.554;7.844;2023-04-03T03:11:03;98443.91;;;16.97;59.32
55418;BME280;41287;47.554;7.844;2023-04-03T03:13:29;98435.78;;;16.97;59.38
55418;BME280;41287;47.554;7.844;2023-04-03T03:15:56;98440.09;;;16.98;59.39
55418;BME280;41287;47.554;7.844;2023-04-03T03:18:23;98450.13;;;16.98;59.38
55418;BME280;41287;47.554;7.844;2023-04-03T03:20:54;98446.59;;;16.97;59.33
55418;BME280;41287;47.554;7.844;2023-04-03T03:23:21;98448.19;;;16.98;59.42
55418;BME280;41287;47.554;7.844;2023-04-03T03:25:46;98452.81;;;16.98;59.20
55418;BME280;41287;47.554;7.844;2023-04-03T03:28:12;98453.13;;;16.96;59.31
55418;BME280;41287;47.554;7.844;2023-04-03T03:30:37;98460.94;;;16.98;59.35
55418;BME280;41287;47.554;7.844;2023-04-03T03:33:03;98445.81;;;16.97;59.60
55418;BME280;41287;47.554;7.844;2023-04-03T03:35:28;98459.34;;;16.97;59.44
55418;BME280;41287;47.554;7.844;2023-04-03T03:37:54;98458.53;;;16.96;59.56
55418;BME280;41287;47.554;7.844;2023-04-03T03:40:21;98453.13;;;16.96;59.49
55418;BME280;41287;47.554;7.844;2023-04-03T03:42:47;98454.72;;;16.97;59.36
55418;BME280;41287;47.554;7.844;2023-04-03T03:45:12;98452.81;;;16.98;59.47
55418;BME280;41287;47.554;7.844;2023-04-03T03:47:37;98454.72;;;16.97;59.32
55418;BME280;41287;47.554;7.844;2023-04-03T03:50:03;98451.22;;;16.97;59.26
55418;BME280;41287;47.554;7.844;2023-04-03T03:52:29;98449.31;;;16.97;59.44
55418;BME280;41287;47.554;7.844;2023-04-03T03:54:55;98456.63;;;16.97;59.36
55418;BME280;41287;47.554;7.844;2023-04-03T03:57:21;98453.94;;;16.97;59.26
55418;BME280;41287;47.554;7.844;2023-04-03T03:59:46;98453.94;;;16.97;59.27
55418;BME280;41287;47.554;7.844;2023-04-03T04:02:12;98462.84;;;16.97;59.45
55418;BME280;41287;47.554;7.844;2023-04-03T04:04:38;98464.75;;;16.97;59.35
55418;BME280;41287;47.554;7.844;2023-04-03T04:07:03;98460.13;;;16.97;59.51
55418;BME280;41287;47.554;7.844;2023-04-03T04:09:28;98464.44;;;16.98;59.43
55418;BME280;41287;47.554;7.844;2023-04-03T04:11:56;98462.50;;;16.99;59.79
55418;BME280;41287;47.554;7.844;2023-04-03T04:14:21;98464.00;;;17.05;60.08
55418;BME280;41287;47.554;7.844;2023-04-03T04:16:47;98460.34;;;17.10;59.88
55418;BME280;41287;47.554;7.844;2023-04-03T04:19:13;98460.19;;;17.15;59.96
55418;BME280;41287;47.554;7.844;2023-04-03T04:21:38;98467.69;;;17.18;59.98
55418;BME280;41287;47.554;7.844;2023-04-03T04:24:12;98458.91;;;17.21;60.08
55418;BME280;41287;47.554;7.844;2023-04-03T04:26:40;98459.91;;;17.25;60.33
55418;BME280;41287;47.554;7.844;2023-04-03T04:29:05;98461.16;;;17.27;60.69
55418;BME280;41287;47.554;7.844;2023-04-03T04:31:30;98465.16;;;17.30;61.49
55418;BME280;41287;47.554;7.844;2023-04-03T04:33:55;98469.16;;;17.32;62.03
55418;BME280;41287;47.554;7.844;2023-04-03T04:36:21;98456.09;;;17.34;62.63
55418;BME280;41287;47.554;7.844;2023-04-03T04:38:46;98465.50;;;17.37;63.36
55418;BME280;41287;47.554;7.844;2023-04-03T04:41:12;98463.28;;;17.39;64.63
55418;BME280;41287;47.554;7.844;2023-04-03T04:43:37;98457.53;;;17.41;65.08
55418;BME280;41287;47.554;7.844;2023-04-03T04:46:05;98465.03;;;17.44;65.74
55418;BME280;41287;47.554;7.844;2023-04-03T04:48:33;98462.63;;;17.42;65.24
55418;BME280;41287;47.554;7.844;2023-04-03T04:51:00;98467.56;;;17.40;64.97
55418;BME280;41287;47.554;7.844;2023-04-03T04:53:25;98472.50;;;17.38;64.61
55418;BME280;41287;47.554;7.844;2023-04-03T04:55:51;98476.34;;;17.37;64.20
55418;BME280;41287;47.554;7.844;2023-04-03T04:58:19;98472.34;;;17.34;63.96
55418;BME280;41287;47.554;7.844;2023-04-03T05:00:47;98478.09;;;17.33;63.42
55418;BME280;41287;47.554;7.844;2023-04-03T05:03:12;98475.69;;;17.31;63.39
55418;BME280;41287;47.554;7.844;2023-04-03T05:05:38;98482.22;;;17.30;63.28
55418;BME280;41287;47.554;7.844;2023-04-03T05:08:05;98480.63;;;17.29;63.01
55418;BME280;41287;47.554;7.844;2023-04-03T05:10:31;98496.06;;;17.29;62.88
55418;BME280;41287;47.554;7.844;2023-04-03T05:12:57;98483.63;;;17.28;62.74
55418;BME280;41287;47.554;7.844;2023-04-03T05:15:23;98496.38;;;17.27;62.54
55418;BME280;41287;47.554;7.844;2023-04-03T05:17:48;98494.00;;;17.26;62.46
55418;BME280;41287;47.554;7.844;2023-04-03T05:20:14;98488.88;;;17.24;62.36
55418;BME280;41287;47.554;7.844;2023-04-03T05:22:40;98494.31;;;17.24;62.03
55418;BME280;41287;47.554;7.844;2023-04-03T05:25:05;98500.03;;;17.23;61.91
55418;BME280;41287;47.554;7.844;2023-04-03T05:27:31;98494.91;;;17.21;61.64
55418;BME280;41287;47.554;7.844;2023-04-03T05:29:56;98490.63;;;17.20;61.66
55418;BME280;41287;47.554;7.844;2023-04-03T05:32:23;98496.03;;;17.20;61.50
55418;BME280;41287;47.554;7.844;2023-04-03T05:34:50;98501.44;;;17.20;61.31
55418;BME280;41287;47.554;7.844;2023-04-03T05:37:15;98495.22;;;17.20;61.46
55418;BME280;41287;47.554;7.844;2023-04-03T05:39:41;98502.59;;;17.19;61.33
55418;BME280;41287;47.554;7.844;2023-04-03T05:42:07;98499.06;;;17.19;61.28
55418;BME280;41287;47.554;7.844;2023-04-03T05:44:32;98505.59;;;17.18;61.30
55418;BME280;41287;47.554;7.844;2023-04-03T05:46:58;98501.78;;;17.19;61.17
55418;BME280;41287;47.554;7.844;2023-04-03T05:49:24;98496.66;;;17.17;61.13
55418;BME280;41287;47.554;7.844;2023-04-03T05:51:49;98496.66;;;17.17;61.15
55418;BME280;41287;47.554;7.844;2023-04-03T05:54:27;98505.91;;;17.16;61.04
55418;BME280;41287;47.554;7.844;2023-04-03T05:56:53;98506.69;;;17.17;61.07
55418;BME280;41287;47.554;7.844;2023-04-03T05:59:19;98495.06;;;17.16;60.94
55418;BME280;41287;47.554;7.844;2023-04-03T06:01:45;98495.06;;;17.16;60.86
55418;BME280;41287;47.554;7.844;2023-04-03T06:04:11;98504.00;;;17.17;60.96
55418;BME280;41287;47.554;7.844;2023-04-03T06:06:44;98509.72;;;17.15;60.79
55418;BME280;41287;47.554;7.844;2023-04-03T06:09:10;98509.72;;;17.15;60.87
55418;BME280;41287;47.554;7.844;2023-04-03T06:11:35;98511.31;;;17.16;60.76
55418;BME280;41287;47.554;7.844;2023-04-03T06:14:01;98509.72;;;17.15;60.90
55418;BME280;41287;47.554;7.844;2023-04-03T06:16:26;98514.34;;;17.15;61.02
55418;BME280;41287;47.554;7.844;2023-04-03T06:18:51;98510.81;;;17.14;61.00
55418;BME280;41287;47.554;7.844;2023-04-03T06:21:17;98513.53;;;17.14;60.80
55418;BME280;41287;47.554;7.844;2023-04-03T06:23:42;98514.63;;;17.13;60.86
55418;BME280;41287;47.554;7.844;2023-04-03T06:26:07;98514.63;;;17.13;60.81
55418;BME280;41287;47.554;7.844;2023-04-03T06:28:33;98521.97;;;17.13;60.82
55418;BME280;41287;47.554;7.844;2023-04-03T06:30:58;98511.94;;;17.13;60.67
55418;BME280;41287;47.554;7.844;2023-04-03T06:33:25;98516.53;;;17.13;60.71
55418;BME280;41287;47.554;7.844;2023-04-03T06:35:57;98517.69;;;17.12;60.77
55418;BME280;41287;47.554;7.844;2023-04-03T06:38:23;98517.34;;;17.13;60.78
55418;BME280;41287;47.554;7.844;2023-04-03T06:40:48;98523.09;;;17.12;60.67
55418;BME280;41287;47.554;7.844;2023-04-03T06:43:13;98525.81;;;17.12;60.60
55418;BME280;41287;47.554;7.844;2023-04-03T06:45:39;98531.22;;;17.12;60.65
55418;BME280;41287;47.554;7.844;2023-04-03T06:48:05;98532.03;;;17.12;60.59
55418;BME280;41287;47.554;7.844;2023-04-03T06:50:32;98535.84;;;17.11;60.70
55418;BME280;41287;47.554;7.844;2023-04-03T06:52:58;98536.63;;;17.12;60.54
55418;BME280;41287;47.554;7.844;2023-04-03T06:55:23;98533.13;;;17.11;60.68
55418;BME280;41287;47.554;7.844;2023-04-03T06:57:49;98533.13;;;17.11;60.65
55418;BME280;41287;47.554;7.844;2023-04-03T07:00:14;98537.75;;;17.11;60.88
55418;BME280;41287;47.554;7.844;2023-04-03T07:02:41;98536.13;;;17.10;60.58
55418;BME280;41287;47.554;7.844;2023-04-03T07:05:07;98539.66;;;17.10;60.59
55418;BME280;41287;47.554;7.844;2023-04-03T07:07:32;98542.34;;;17.10;60.32
55418;BME280;41287;47.554;7.844;2023-04-03T07:09:59;98536.94;;;17.10;60.62
55418;BME280;41287;47.554;7.844;2023-04-03T07:12:25;98549.69;;;17.10;60.58
55418;BME280;41287;47.554;7.844;2023-04-03T07:14:52;98538.84;;;17.10;60.70
55418;BME280;41287;47.554;7.844;2023-04-03T07:17:19;98542.66;;;17.09;60.80
55418;BME280;41287;47.554;7.844;2023-04-03T07:19:45;98552.69;;;17.08;60.50
55418;BME280;41287;47.554;7.844;2023-04-03T07:22:10;98546.16;;;17.09;60.64
55418;BME280;41287;47.554;7.844;2023-04-03T07:24:36;98548.06;;;17.09;60.50
55418;BME280;41287;47.554;7.844;2023-04-03T07:27:02;98545.38;;;17.09;60.53
55418;BME280;41287;47.554;7.844;2023-04-03T07:29:28;98552.69;;;17.08;60.56
55418;BME280;41287;47.554;7.844;2023-04-03T07:31:59;98546.47;;;17.08;60.46
55418;BME280;41287;47.554;7.844;2023-04-03T07:34:25;98550.28;;;17.07;60.66
55418;BME280;41287;47.554;7.844;2023-04-03T07:36:51;98563.53;;;17.08;60.47
55418;BME280;41287;47.554;7.844;2023-04-03T07:39:18;98561.91;;;17.07;60.62
55418;BME280;41287;47.554;7.844;2023-04-03T07:41:44;98563.53;;;17.08;60.52
55418;BME280;41287;47.554;7.844;2023-04-03T07:44:10;98573.56;;;17.08;60.56
55418;BME280;41287;47.554;7.844;2023-04-03T07:46:35;98559.22;;;17.07;60.56
55418;BME280;41287;47.554;7.844;2023-04-03T07:49:03;98564.63;;;17.07;60.70
55418;BME280;41287;47.554;7.844;2023-04-03T07:51:29;98567.34;;;17.07;60.43
55418;BME280;41287;47.554;7.844;2023-04-03T07:53:55;98573.84;;;17.06;60.51
55418;BME280;41287;47.554;7.844;2023-04-03T07:56:21;98561.13;;;17.07;60.36
55418;BME280;41287;47.554;7.844;2023-04-03T07:58:46;98563.03;;;17.06;60.31
55418;BME280;41287;47.554;7.844;2023-04-03T08:01:14;98563.34;;;17.05;60.26
55418;BME280;41287;47.554;7.844;2023-04-03T08:03:39;98560.66;;;17.05;60.06
55418;BME280;41287;47.554;7.844;2023-04-03T08:06:07;98565.25;;;17.04;59.96
55418;BME280;41287;47.554;7.844;2023-04-03T08:08:33;98574.19;;;17.05;59.99
55418;BME280;41287;47.554;7.844;2023-04-03T08:11:00;98566.06;;;17.05;59.73
55418;BME280;41287;47.554;7.844;2023-04-03T08:13:27;98567.16;;;17.04;59.63
55418;BME280;41287;47.554;7.844;2023-04-03T08:15:53;98573.38;;;17.04;59.49
55418;BME280;41287;47.554;7.844;2023-04-03T08:18:18;98569.88;;;17.04;59.35
55418;BME280;41287;47.554;7.844;2023-04-03T08:20:46;98570.69;;;17.04;59.42
55418;BME280;41287;47.554;7.844;2023-04-03T08:23:12;98573.38;;;17.04;59.29
55418;BME280;41287;47.554;7.844;2023-04-03T08:25:39;98572.59;;;17.04;59.30
55418;BME280;41287;47.554;7.844;2023-04-03T08:28:05;98571.78;;;17.03;59.45
55418;BME280;41287;47.554;7.844;2023-04-03T08:30:30;98567.16;;;17.04;59.49
55418;BME280;41287;47.554;7.844;2023-04-03T08:32:56;98569.88;;;17.04;59.77
55418;BME280;41287;47.554;7.844;2023-04-03T08:35:21;98571.78;;;17.03;59.47
55418;BME280;41287;47.554;7.844;2023-04-03T08:37:48;98573.69;;;17.03;59.61
55418;BME280;41287;47.554;7.844;2023-04-03T08:40:16;98579.91;;;17.03;59.66
55418;BME280;41287;47.554;7.844;2023-04-03T08:43:00;98575.91;;;17.01;59.63
55418;BME280;41287;47.554;7.844;2023-04-03T08:45:42;98584.81;;;17.01;59.53
55418;BME280;41287;47.554;7.844;2023-04-03T08:48:22;98583.22;;;17.00;59.58
55418;BME280;41287;47.554;7.844;2023-04-03T08:50:53;98585.63;;;17.02;59.61
55418;BME280;41287;47.554;7.844;2023-04-03T08:53:25;98582.13;;;17.01;59.52
55418;BME280;41287;47.554;7.844;2023-04-03T08:55:54;98584.81;;;17.01;59.68
55418;BME280;41287;47.554;7.844;2023-04-03T08:58:26;98584.03;;;17.01;59.58
55418;BME280;41287;47.554;7.844;2023-04-03T09:01:04;98587.84;;;16.99;59.79
55418;BME280;41287;47.554;7.844;2023-04-03T09:03:36;98586.72;;;17.01;59.75
55418;BME280;41287;47.554;7.844;2023-04-03T09:08:40;98596.75;;;17.00;59.62
55418;BME280;41287;47.554;7.844;2023-04-03T09:16:56;98603.28;;;16.99;59.72
55418;BME280;41287;47.554;7.844;2023-04-03T09:22:16;98604.06;;;16.99;59.55
55418;BME280;41287;47.554;7.844;2023-04-03T09:24:45;98604.06;;;16.99;59.47
55418;BME280;41287;47.554;7.844;2023-04-03T09:27:12;98601.38;;;16.99;59.55
55418;BME280;41287;47.554;7.844;2023-04-03T09:29:40;98600.28;;;17.01;59.52
55418;BME280;41287;47.554;7.844;2023-04-03T09:32:35;98599.00;;;16.98;59.43
55418;BME280;41287;47.554;7.844;2023-04-03T09:35:16;98600.91;;;16.97;59.66
55418;BME280;41287;47.554;7.844;2023-04-03T09:37:47;98595.16;;;16.99;59.52
55418;BME280;41287;47.554;7.844;2023-04-03T09:42:50;98607.59;;;17.00;59.57
55418;BME280;41287;47.554;7.844;2023-04-03T09:48:15;98571.44;;;16.96;59.73
55418;BME280;41287;47.554;7.844;2023-04-03T09:50:55;98566.81;;;16.96;59.72
55418;BME280;41287;47.554;7.844;2023-04-03T09:53:38;98574.94;;;16.96;59.64
55418;BME280;41287;47.554;7.844;2023-04-03T09:56:19;98570.31;;;16.97;59.49
55418;BME280;41287;47.554;7.844;2023-04-03T09:59:12;98567.91;;;16.95;59.77
55418;BME280;41287;47.554;7.844;2023-04-03T10:01:42;98571.13;;;16.97;59.62
55418;BME280;41287;47.554;7.844;2023-04-03T10:04:15;98578.44;;;16.97;59.76
55418;BME280;41287;47.554;7.844;2023-04-03T10:06:48;98575.75;;;16.97;59.57
55418;BME280;41287;47.554;7.844;2023-04-03T10:09:25;98576.03;;;16.95;59.56
55418;BME280;41287;47.554;7.844;2023-04-03T10:12:05;98568.72;;;16.96;59.82
55418;BME280;41287;47.554;7.844;2023-04-03T10:14:36;98576.03;;;16.95;59.80
55418;BME280;41287;47.554;7.844;2023-04-03T10:17:13;98583.06;;;16.96;59.73
55418;BME280;41287;47.554;7.844;2023-04-03T10:19:52;98577.16;;;16.94;59.64
55418;BME280;41287;47.554;7.844;2023-04-03T10:22:34;98607.72;;;16.95;59.71
55418;BME280;41287;47.554;7.844;2023-04-03T10:25:21;98606.13;;;16.94;59.82
55418;BME280;41287;47.554;7.844;2023-04-03T10:30:32;98606.63;;;16.96;59.81
55418;BME280;41287;47.554;7.844;2023-04-03T10:33:06;98603.13;;;16.95;59.75
55418;BME280;41287;47.554;7.844;2023-04-03T10:38:31;98599.59;;;16.95;59.87
55418;BME280;41287;47.554;7.844;2023-04-03T10:47:00;98590.19;;;16.92;59.84
55418;BME280;41287;47.554;7.844;2023-04-03T10:49:56;98591.31;;;16.91;59.75
55418;BME280;41287;47.554;7.844;2023-04-03T10:57:39;98581.75;;;16.94;59.87
55418;BME280;41287;47.554;7.844;2023-04-03T11:00:14;98586.38;;;16.93;59.77
55418;BME280;41287;47.554;7.844;2023-04-03T11:02:55;98575.06;;;16.91;59.87
55418;BME280;41287;47.554;7.844;2023-04-03T11:05:30;98577.16;;;16.94;60.80
55418;BME280;41287;47.554;7.844;2023-04-03T11:08:02;98567.63;;;16.97;61.13
55418;BME280;41287;47.554;7.844;2023-04-03T11:10:40;98575.44;;;16.98;61.24
55418;BME280;41287;47.554;7.844;2023-04-03T11:13:52;98565.88;;;17.01;61.18
55418;BME280;41287;47.554;7.844;2023-04-03T11:16:26;98564.47;;;17.04;61.06
55418;BME280;41287;47.554;7.844;2023-04-03T11:18:58;98566.88;;;17.05;61.10
55418;BME280;41287;47.554;7.844;2023-04-03T11:21:29;98568.44;;;17.06;61.03
55418;BME280;41287;47.554;7.844;2023-04-03T11:23:59;98570.03;;;17.07;60.91
55418;BME280;41287;47.554;7.844;2023-04-03T11:26:30;98562.72;;;17.08;60.83
55418;BME280;41287;47.554;7.844;2023-04-03T11:29:11;98553.78;;;17.07;60.88
55418;BME280;41287;47.554;7.844;2023-04-03T11:34:39;98548.38;;;17.07;60.87
55418;BME280;41287;47.554;7.844;2023-04-03T11:37:15;98550.00;;;17.08;60.70
55418;BME280;41287;47.554;7.844;2023-04-03T11:39:50;98543.78;;;17.08;60.75
55418;BME280;41287;47.554;7.844;2023-04-03T11:42:39;98542.50;;;17.05;60.98
55418;BME280;41287;47.554;7.844;2023-04-03T11:48:00;98540.09;;;17.04;60.73
55418;BME280;41287;47.554;7.844;2023-04-03T12:13:36;98541.00;;;16.99;60.56
55418;BME280;41287;47.554;7.844;2023-04-03T12:16:03;98538.31;;;16.99;60.58
55418;BME280;41287;47.554;7.844;2023-04-03T12:18:42;98539.75;;;16.96;60.51
55418;BME280;41287;47.554;7.844;2023-04-03T12:21:09;98539.91;;;17.00;60.46
55418;BME280;41287;47.554;7.844;2023-04-03T12:23:36;98534.84;;;16.98;60.43
55418;BME280;41287;47.554;7.844;2023-04-03T12:26:22;98542.94;;;16.98;60.42
55418;BME280;41287;47.554;7.844;2023-04-03T12:28:52;98534.03;;;16.98;60.50
55418;BME280;41287;47.554;7.844;2023-04-03T12:31:19;98534.03;;;16.98;60.47
55418;BME280;41287;47.554;7.844;2023-04-03T12:34:12;98521.91;;;16.95;60.46
55418;BME280;41287;47.554;7.844;2023-04-03T12:36:46;98524.31;;;16.97;60.43
55418;BME280;41287;47.554;7.844;2023-04-03T12:47:27;98522.69;;;16.96;60.34
55418;BME280;41287;47.554;7.844;2023-04-03T12:49:53;98520.78;;;16.96;60.44
55418;BME280;41287;47.554;7.844;2023-04-03T12:52:36;98530.03;;;16.95;60.38
55418;BME280;41287;47.554;7.844;2023-04-03T12:55:03;98515.38;;;16.96;60.35
55418;BME280;41287;47.554;7.844;2023-04-03T12:57:34;98507.56;;;16.95;60.35
55418;BME280;41287;47.554;7.844;2023-04-03T13:00:00;98514.59;;;16.96;60.45
55418;BME280;41287;47.554;7.844;2023-04-03T13:02:46;98511.06;;;16.95;60.44
55418;BME280;41287;47.554;7.844;2023-04-03T13:05:18;98508.38;;;16.95;60.41
55418;BME280;41287;47.554;7.844;2023-04-03T13:07:49;98516.50;;;16.95;60.34
55418;BME280;41287;47.554;7.844;2023-04-03T13:10:18;98512.97;;;16.95;60.27
55418;BME280;41287;47.554;7.844;2023-04-03T13:15:21;98515.69;;;16.95;60.46
55418;BME280;41287;47.554;7.844;2023-04-03T13:17:48;98506.78;;;16.94;60.20
55418;BME280;41287;47.554;7.844;2023-04-03T13:20:35;98508.22;;;16.92;60.42
55418;BME280;41287;47.554;7.844;2023-04-03T13:23:07;98512.19;;;16.94;60.32
55418;BME280;41287;47.554;7.844;2023-04-03T13:25:36;98502.16;;;16.95;60.31
55418;BME280;41287;47.554;7.844;2023-04-03T13:28:06;98505.16;;;16.93;60.26
55418;BME280;41287;47.554;7.844;2023-04-03T13:30:36;98508.69;;;16.94;60.23
55418;BME280;41287;47.554;7.844;2023-04-03T13:33:06;98512.19;;;16.94;60.00
55418;BME280;41287;47.554;7.844;2023-04-03T13:35:36;98510.59;;;16.93;60.25
55418;BME280;41287;47.554;7.844;2023-04-03T13:38:46;98512.97;;;16.95;60.09
55418;BME280;41287;47.554;7.844;2023-04-03T13:40:55;98502.47;;;16.93;60.17
55418;BME280;41287;47.554;7.844;2023-04-03T13:43:25;98501.66;;;16.93;60.18
55418;BME280;41287;47.554;7.844;2023-04-03T13:48:48;98503.56;;;16.92;60.28
55418;BME280;41287;47.554;7.844;2023-04-03T13:53:46;98493.53;;;16.93;60.18
55418;BME280;41287;47.554;7.844;2023-04-03T14:01:40;98488.47;;;16.91;60.57
55418;BME280;41287;47.554;7.844;2023-04-03T14:04:25;98486.84;;;16.90;60.22
55418;BME280;41287;47.554;7.844;2023-04-03T14:06:51;98486.56;;;16.92;60.32
55418;BME280;41287;47.554;7.844;2023-04-03T14:09:20;98488.94;;;16.93;60.44
55418;BME280;41287;47.554;7.844;2023-04-03T14:11:47;98484.31;;;16.94;60.89
55418;BME280;41287;47.554;7.844;2023-04-03T14:14:20;98478.09;;;16.93;60.66
55418;BME280;41287;47.554;7.844;2023-04-03T14:16:51;98476.50;;;16.92;60.74
55418;BME280;41287;47.554;7.844;2023-04-03T14:19:22;98468.38;;;16.92;60.54
55418;BME280;41287;47.554;7.844;2023-04-03T14:21:48;98473.03;;;16.92;60.60
55418;BME280;41287;47.554;7.844;2023-04-03T14:24:13;98473.78;;;16.92;60.47
55418;BME280;41287;47.554;7.844;2023-04-03T14:26:39;98469.19;;;16.93;60.43
55418;BME280;41287;47.554;7.844;2023-04-03T14:29:04;98471.41;;;16.91;60.57
55418;BME280;41287;47.554;7.844;2023-04-03T14:31:30;98475.72;;;16.92;60.41
55418;BME280;41287;47.554;7.844;2023-04-03T14:33:57;98477.63;;;16.91;60.38
55418;BME280;41287;47.554;7.844;2023-04-03T14:36:25;98472.22;;;16.91;60.25
55418;BME280;41287;47.554;7.844;2023-04-03T14:38:52;98464.09;;;16.91;60.33
55418;BME280;41287;47.554;7.844;2023-04-03T14:41:21;98472.22;;;16.91;60.30
55418;BME280;41287;47.554;7.844;2023-04-03T14:43:48;98463.31;;;16.91;60.22